createdAt,value
2023-03-13T00:01:26.110Z,320.00
2023-03-13T00:03:55.357Z,326.17
2023-03-13T00:06:38.912Z,326.58
2023-03-13T00:09:09.361Z,327.35
2023-03-13T00:11:36.553Z,343.75
2023-03-13T00:14:05.319Z,332.35
2023-03-13T00:16:34.605Z,337.42
2023-03-13T00:19:01.998Z,338.80
2023-03-13T00:21:30.170Z,344.17
2023-03-13T00:23:59.564Z,338.02
2023-03-13T00:26:28.840Z,345.15
2023-03-13T00:28:56.357Z,340.98
2023-03-13T00:31:30.359Z,337.77
2023-03-13T00:34:03.122Z,348.33
2023-03-13T00:36:35.636Z,346.77
2023-03-13T00:39:04.901Z,345.92
2023-03-13T00:41:34.268Z,347.48
2023-03-13T00:44:01.981Z,352.85
2023-03-13T00:46:30.291Z,353.05
2023-03-13T00:48:58.052Z,352.35
2023-03-13T00:51:27.594Z,368.35
2023-03-13T00:53:57.209Z,356.88
2023-03-13T00:56:24.433Z,359.15
2023-03-13T00:58:51.943Z,357.70
2023-03-13T01:01:26.111Z,354.17
2023-03-13T01:04:05.738Z,355.25
2023-03-13T01:06:35.949Z,350.80
2023-03-13T01:09:06.034Z,354.38
2023-03-13T01:11:36.685Z,355.27
2023-03-13T01:14:07.918Z,352.90
2023-03-13T01:16:36.840Z,365.80
2023-03-13T01:19:14.212Z,355.52
2023-03-13T01:21:43.840Z,358.67
2023-03-13T01:24:11.379Z,346.90
2023-03-13T01:26:38.483Z,361.73
2023-03-13T01:29:05.739Z,355.42
2023-03-13T01:31:36.039Z,362.42
2023-03-13T01:34:06.411Z,356.77
2023-03-13T01:36:36.402Z,349.58
2023-03-13T01:39:03.901Z,342.88
2023-03-13T01:41:31.865Z,349.77
2023-03-13T01:43:59.937Z,348.52
2023-03-13T01:46:29.872Z,356.15
2023-03-13T01:49:21.025Z,342.20
2023-03-13T01:52:04.785Z,340.25
2023-03-13T01:54:40.837Z,338.75
2023-03-13T01:57:21.548Z,328.75
2023-03-13T02:00:08.082Z,332.38
2023-03-13T02:02:37.141Z,320.15
2023-03-13T02:05:07.249Z,323.13
2023-03-13T02:08:14.266Z,324.98
2023-03-13T02:10:51.627Z,320.77
2023-03-13T02:13:20.529Z,303.17
2023-03-13T02:15:48.385Z,304.90
2023-03-13T02:18:16.706Z,306.27
2023-03-13T02:20:44.074Z,315.77
2023-03-13T02:23:22.523Z,311.15
2023-03-13T02:25:52.587Z,319.40
2023-03-13T02:28:28.280Z,302.15
2023-03-13T02:30:58.759Z,301.08
2023-03-13T02:33:37.458Z,313.63
2023-03-13T02:36:06.406Z,306.67
2023-03-13T02:38:39.645Z,306.25
2023-03-13T02:41:07.030Z,300.90
2023-03-13T02:43:37.445Z,301.77
2023-03-13T02:46:17.945Z,294.40
2023-03-13T02:48:54.338Z,296.95
2023-03-13T02:51:41.598Z,290.75
2023-03-13T02:54:17.549Z,285.73
2023-03-13T02:56:49.137Z,287.05
2023-03-13T02:59:16.621Z,287.67
2023-03-13T03:01:43.658Z,295.70
2023-03-13T03:04:10.728Z,286.67
2023-03-13T03:06:37.773Z,290.77
2023-03-13T03:09:05.220Z,287.50
2023-03-13T03:11:32.179Z,282.08
2023-03-13T03:13:59.264Z,304.90
2023-03-13T03:16:26.267Z,285.08
2023-03-13T03:18:53.274Z,295.90
2023-03-13T03:21:21.369Z,276.80
2023-03-13T03:23:48.491Z,272.55
2023-03-13T03:26:15.883Z,264.08
2023-03-13T03:28:42.823Z,260.13
2023-03-13T03:31:13.287Z,259.40
2023-03-13T03:33:41.710Z,45.28
2023-03-13T03:36:13.821Z,140.27
2023-03-13T03:38:42.123Z,0.10
2023-03-13T03:41:11.179Z,4.63
2023-03-13T03:43:38.330Z,271.60
2023-03-13T03:46:05.719Z,259.17
2023-03-13T03:48:32.915Z,2.22
2023-03-13T03:50:59.989Z,246.35
2023-03-13T03:53:28.168Z,257.83
2023-03-13T03:55:55.629Z,249.15
2023-03-13T03:58:22.697Z,252.98
2023-03-13T04:00:49.694Z,247.48
2023-03-13T04:03:17.414Z,247.93
2023-03-13T04:05:44.578Z,247.60
2023-03-13T04:08:11.576Z,246.30
2023-03-13T04:10:38.723Z,255.75
2023-03-13T04:13:05.765Z,246.90
2023-03-13T04:15:32.723Z,245.90
2023-03-13T04:17:59.760Z,255.02
2023-03-13T04:20:28.908Z,253.43
2023-03-13T04:22:56.040Z,247.23
2023-03-13T04:25:23.116Z,264.00
2023-03-13T04:27:50.138Z,251.82
2023-03-13T04:30:18.752Z,246.18
2023-03-13T04:32:45.983Z,250.05
2023-03-13T04:35:12.991Z,255.27
2023-03-13T04:37:40.080Z,249.93
2023-03-13T04:40:07.902Z,251.18
2023-03-13T04:42:34.925Z,256.10
2023-03-13T04:45:02.113Z,272.25
2023-03-13T04:47:29.122Z,264.05
2023-03-13T04:49:56.149Z,266.35
2023-03-13T04:52:23.244Z,271.98
2023-03-13T04:54:51.265Z,274.92
2023-03-13T04:57:18.378Z,287.25
2023-03-13T04:59:45.983Z,294.33
2023-03-13T05:02:14.072Z,290.38
2023-03-13T05:04:41.199Z,293.67
2023-03-13T05:07:08.242Z,295.77
2023-03-13T05:09:35.561Z,302.70
2023-03-13T05:12:08.417Z,322.60
2023-03-13T05:14:35.448Z,304.70
2023-03-13T05:17:02.388Z,304.23
2023-03-13T05:19:29.436Z,305.25
2023-03-13T05:21:56.484Z,309.90
2023-03-13T05:24:23.419Z,313.58
2023-03-13T05:26:50.370Z,315.73
2023-03-13T05:29:17.359Z,313.02
2023-03-13T05:31:44.364Z,315.90
2023-03-13T05:34:11.881Z,318.75
2023-03-13T05:36:38.951Z,320.17
2023-03-13T05:39:05.920Z,328.17
2023-03-13T05:41:32.841Z,329.13
2023-03-13T05:44:00.092Z,332.75
2023-03-13T05:46:27.325Z,328.23
2023-03-13T05:48:54.364Z,336.85
2023-03-13T05:51:21.358Z,334.20
2023-03-13T05:53:48.294Z,329.73
2023-03-13T05:56:15.284Z,340.98
2023-03-13T05:58:42.256Z,340.83
2023-03-13T06:01:11.988Z,333.35
2023-03-13T06:03:39.597Z,343.80
2023-03-13T06:06:06.859Z,354.20
2023-03-13T06:08:33.809Z,351.13
2023-03-13T06:11:02.898Z,342.33
2023-03-13T06:13:30.339Z,353.67
2023-03-13T06:15:58.888Z,346.25
2023-03-13T06:18:27.234Z,345.20
2023-03-13T06:21:00.331Z,353.27
2023-03-13T06:23:28.184Z,355.58
2023-03-13T06:25:55.705Z,352.38
2023-03-13T06:28:22.994Z,351.83
2023-03-13T06:30:49.982Z,354.05
2023-03-13T06:33:17.429Z,352.70
2023-03-13T06:35:55.736Z,353.80
2023-03-13T06:38:27.090Z,355.58
2023-03-13T06:40:54.431Z,368.20
2023-03-13T06:43:22.160Z,363.38
2023-03-13T06:45:49.462Z,365.17
2023-03-13T06:48:16.734Z,360.90
2023-03-13T06:50:43.844Z,368.55
2023-03-13T06:53:19.766Z,361.25
2023-03-13T06:55:47.536Z,376.20
2023-03-13T06:58:29.200Z,371.05
2023-03-13T07:01:10.764Z,367.63
2023-03-13T07:03:39.281Z,370.23
2023-03-13T07:06:06.453Z,383.45
2023-03-13T07:08:34.107Z,376.17
2023-03-13T07:11:08.553Z,373.65
2023-03-13T07:13:35.930Z,380.88
2023-03-13T07:16:05.486Z,381.10
2023-03-13T07:18:33.235Z,388.42
2023-03-13T07:21:05.223Z,387.45
2023-03-13T07:23:34.574Z,386.60
2023-03-13T07:26:08.070Z,392.15
2023-03-13T07:28:37.721Z,402.75
2023-03-13T07:31:17.923Z,406.83
2023-03-13T07:33:45.542Z,401.70
2023-03-13T07:36:15.258Z,416.23
2023-03-13T07:38:43.973Z,401.75
2023-03-13T07:41:15.802Z,414.85
2023-03-13T07:43:43.110Z,421.45
2023-03-13T07:46:18.858Z,419.75
2023-03-13T07:48:47.010Z,428.02
2023-03-13T07:51:27.713Z,424.08
2023-03-13T07:54:04.149Z,413.52
2023-03-13T07:56:31.337Z,440.48
2023-03-13T07:58:58.312Z,447.80
2023-03-13T08:01:30.506Z,445.70
2023-03-13T08:03:58.865Z,442.02
2023-03-13T08:06:27.695Z,440.65
2023-03-13T08:08:58.147Z,459.23
2023-03-13T08:11:27.826Z,444.42
2023-03-13T08:13:56.331Z,453.33
2023-03-13T08:16:27.345Z,462.23
2023-03-13T08:18:57.698Z,464.42
2023-03-13T08:21:33.993Z,459.67
2023-03-13T08:24:06.009Z,457.63
2023-03-13T08:26:36.283Z,474.20
2023-03-13T08:29:08.788Z,474.08
2023-03-13T08:31:46.177Z,477.83
2023-03-13T08:34:14.401Z,468.42
2023-03-13T08:36:42.008Z,476.38
2023-03-13T08:39:17.300Z,476.75
2023-03-13T08:41:44.497Z,466.60
2023-03-13T08:44:14.292Z,476.75
2023-03-13T08:46:41.619Z,474.15
2023-03-13T08:49:09.222Z,477.67
2023-03-13T08:51:37.352Z,474.45
2023-03-13T08:54:05.641Z,482.30
2023-03-13T08:56:33.607Z,473.50
2023-03-13T08:59:03.281Z,477.77
2023-03-13T09:01:33.306Z,472.88
2023-03-13T09:04:03.987Z,477.77
2023-03-13T09:06:33.882Z,478.65
2023-03-13T09:09:01.469Z,475.20
2023-03-13T09:11:28.750Z,484.85
2023-03-13T09:13:59.358Z,492.98
2023-03-13T09:16:29.743Z,492.75
2023-03-13T09:18:58.060Z,495.25
2023-03-13T09:21:29.308Z,499.77
2023-03-13T09:23:57.483Z,497.08
2023-03-13T09:26:25.536Z,512.45
2023-03-13T09:28:53.949Z,514.78
2023-03-13T09:31:26.390Z,507.73
2023-03-13T09:33:54.810Z,510.33
2023-03-13T09:36:23.967Z,509.58
2023-03-13T09:38:54.056Z,505.85
2023-03-13T09:41:39.916Z,501.08
2023-03-13T09:44:26.837Z,492.58
2023-03-13T09:47:11.693Z,488.25
2023-03-13T09:49:47.059Z,502.05
2023-03-13T09:52:42.399Z,503.27
2023-03-13T09:55:37.414Z,495.83
2023-03-13T09:58:29.131Z,505.55
2023-03-13T10:01:04.400Z,508.55
2023-03-13T10:03:47.315Z,504.58
2023-03-13T10:06:21.326Z,484.25
2023-03-13T10:08:48.309Z,492.67
2023-03-13T10:11:30.658Z,536.03
2023-03-13T10:14:22.792Z,516.58
2023-03-13T10:17:09.918Z,508.45
2023-03-13T10:19:47.404Z,526.65
2023-03-13T10:22:23.204Z,527.60
2023-03-13T10:25:01.016Z,528.50
2023-03-13T10:27:28.120Z,543.45
2023-03-13T10:29:55.142Z,548.97
2023-03-13T10:32:22.368Z,565.50
2023-03-13T10:34:59.822Z,578.00
2023-03-13T10:37:33.147Z,562.67
2023-03-13T10:40:25.740Z,560.78
2023-03-13T10:43:01.094Z,568.67
2023-03-13T10:45:32.809Z,589.20
2023-03-13T10:48:10.586Z,591.03
2023-03-13T10:50:38.731Z,583.92
2023-03-13T10:53:28.902Z,601.90
2023-03-13T10:56:02.423Z,595.47
2023-03-13T10:58:45.291Z,603.60
2023-03-13T11:01:22.123Z,602.35
2023-03-13T11:03:53.220Z,614.70
2023-03-13T11:06:32.768Z,646.45
2023-03-13T11:09:20.151Z,656.30
2023-03-13T11:11:53.653Z,654.83
2023-03-13T11:14:24.148Z,663.28
2023-03-13T11:17:36.253Z,679.78
2023-03-13T11:20:27.946Z,669.05
2023-03-13T11:23:01.400Z,667.83
2023-03-13T11:25:33.286Z,689.35
2023-03-13T11:28:42.576Z,696.53
2023-03-13T11:31:24.774Z,684.10
2023-03-13T11:34:28.089Z,715.22
2023-03-13T11:37:14.894Z,701.38
2023-03-13T11:40:15.543Z,720.47
2023-03-13T11:42:48.395Z,718.25
2023-03-13T11:45:50.944Z,722.85
2023-03-13T11:48:48.013Z,786.97
2023-03-13T11:51:34.165Z,785.05
2023-03-13T11:54:28.896Z,793.10
2023-03-13T11:57:06.108Z,774.42
2023-03-13T11:59:54.327Z,776.53
2023-03-13T12:02:33.728Z,786.08
2023-03-13T12:05:07.573Z,799.60
2023-03-13T12:07:45.547Z,801.63
2023-03-13T12:10:40.168Z,806.58
2023-03-13T12:13:39.453Z,797.70
2023-03-13T12:16:20.049Z,818.67
2023-03-13T12:18:49.731Z,806.17
2023-03-13T12:21:19.503Z,804.53
2023-03-13T12:24:12.169Z,822.00
2023-03-13T12:26:48.300Z,794.90
2023-03-13T12:29:58.357Z,798.38
2023-03-13T12:32:32.884Z,807.08
2023-03-13T12:35:14.373Z,803.63
2023-03-13T12:37:54.452Z,782.42
2023-03-13T12:41:06.927Z,790.55
2023-03-13T12:43:40.270Z,794.90
2023-03-13T12:46:10.531Z,781.15
2023-03-13T12:49:27.767Z,791.08
2023-03-13T12:52:31.856Z,781.75
2023-03-13T12:55:24.792Z,783.92
2023-03-13T12:58:39.940Z,768.00
2023-03-13T13:01:14.338Z,766.55
2023-03-13T13:04:28.122Z,776.22
2023-03-13T13:07:03.882Z,772.33
2023-03-13T13:09:36.172Z,788.33
2023-03-13T13:12:20.068Z,766.47
2023-03-13T13:14:50.468Z,782.90
2023-03-13T13:17:46.289Z,784.80
2023-03-13T13:20:36.146Z,789.13
2023-03-13T13:23:43.940Z,781.45
2023-03-13T13:26:36.884Z,791.88
2023-03-13T13:29:12.583Z,796.10
2023-03-13T13:31:59.526Z,799.15
2023-03-13T13:34:32.458Z,804.45
2023-03-13T13:37:06.424Z,678.15
2023-03-13T13:39:47.996Z,812.67
2023-03-13T13:42:33.504Z,806.10
2023-03-13T13:45:15.858Z,820.97
2023-03-13T13:47:49.604Z,812.25
2023-03-13T13:50:25.303Z,819.80
2023-03-13T13:52:53.241Z,833.47
2023-03-13T13:55:43.780Z,852.80
2023-03-13T13:58:23.011Z,477.02
2023-03-13T14:00:55.977Z,829.53
2023-03-13T14:03:29.704Z,657.10
2023-03-13T14:06:03.962Z,707.55
2023-03-13T14:08:41.711Z,854.08
2023-03-13T14:11:14.969Z,845.65
2023-03-13T14:13:43.839Z,851.67
2023-03-13T14:16:26.002Z,859.60
2023-03-13T14:18:53.927Z,854.22
2023-03-13T14:21:25.271Z,868.63
2023-03-13T14:23:53.129Z,873.08
2023-03-13T14:26:26.181Z,861.28
2023-03-13T14:28:54.453Z,923.83
2023-03-13T14:31:39.507Z,858.63
2023-03-13T14:34:11.484Z,852.15
2023-03-13T14:36:52.133Z,876.58
2023-03-13T14:39:31.079Z,866.13
2023-03-13T14:42:12.965Z,939.50
2023-03-13T14:44:44.152Z,894.95
2023-03-13T14:47:35.062Z,873.90
2023-03-13T14:50:10.062Z,878.47
2023-03-13T14:52:40.018Z,885.08
2023-03-13T14:55:24.042Z,883.35
2023-03-13T14:58:21.289Z,890.15
2023-03-13T15:00:49.772Z,885.75
2023-03-13T15:03:17.519Z,887.05
2023-03-13T15:06:05.752Z,876.28
2023-03-13T15:08:33.902Z,882.05
2023-03-13T15:11:01.414Z,883.40
2023-03-13T15:13:35.926Z,881.25
2023-03-13T15:16:20.352Z,882.58
2023-03-13T15:18:49.577Z,896.83
2023-03-13T15:21:19.196Z,892.83
2023-03-13T15:23:55.708Z,894.03
2023-03-13T15:26:24.236Z,893.38
2023-03-13T15:28:52.109Z,892.42
2023-03-13T15:31:24.183Z,901.95
2023-03-13T15:33:59.496Z,893.13
2023-03-13T15:36:28.713Z,884.38
2023-03-13T15:38:56.411Z,903.55
2023-03-13T15:41:24.370Z,897.53
2023-03-13T15:43:57.773Z,889.10
2023-03-13T15:46:26.600Z,875.20
2023-03-13T15:48:54.243Z,870.42
2023-03-13T15:51:21.329Z,871.80
2023-03-13T15:53:48.448Z,871.38
2023-03-13T15:56:23.256Z,865.72
2023-03-13T15:58:51.732Z,887.33
2023-03-13T16:01:19.545Z,837.97
2023-03-13T16:03:47.127Z,653.15
2023-03-13T16:06:19.152Z,635.42
2023-03-13T16:08:47.138Z,4.10
2023-03-13T16:11:16.550Z,495.85
2023-03-13T16:13:43.860Z,753.88
2023-03-13T16:16:19.380Z,9.43
2023-03-13T16:18:48.091Z,600.78
2023-03-13T16:21:27.439Z,531.50
2023-03-13T16:23:55.346Z,812.55
2023-03-13T16:26:26.197Z,1.42
2023-03-13T16:28:55.377Z,407.05
2023-03-13T16:31:24.573Z,353.90
2023-03-13T16:33:53.927Z,1.90
2023-03-13T16:36:40.888Z,4.20
2023-03-13T16:39:27.095Z,2.00
2023-03-13T16:41:54.434Z,1.83
2023-03-13T16:44:21.849Z,2.33
2023-03-13T16:47:04.385Z,3.83
2023-03-13T16:49:32.346Z,602.88
2023-03-13T16:51:59.248Z,607.90
2023-03-13T16:54:26.375Z,579.72
2023-03-13T16:56:53.412Z,437.98
2023-03-13T16:59:21.569Z,90.57
2023-03-13T17:01:49.203Z,548.65
2023-03-13T17:04:16.609Z,537.05
2023-03-13T17:06:47.925Z,596.85
2023-03-13T17:09:18.623Z,2.63
2023-03-13T17:11:46.285Z,599.67
2023-03-13T17:14:13.693Z,1.88
2023-03-13T17:16:44.229Z,1.85
2023-03-13T17:19:15.301Z,1.95
2023-03-13T17:21:42.629Z,1.30
2023-03-13T17:24:11.537Z,1.00
2023-03-13T17:26:40.067Z,0.20
2023-03-13T17:29:08.702Z,618.83
2023-03-13T17:31:38.879Z,638.90
2023-03-13T17:34:09.095Z,630.00
2023-03-13T17:36:36.719Z,615.55
2023-03-13T17:39:08.746Z,551.70
2023-03-13T17:41:37.337Z,525.67
2023-03-13T17:44:04.730Z,541.83
2023-03-13T17:46:38.657Z,531.20
2023-03-13T17:49:07.709Z,179.13
2023-03-13T17:51:36.513Z,1.83
2023-03-13T17:54:04.003Z,2.13
2023-03-13T17:56:37.481Z,1.73
2023-03-13T17:59:16.099Z,2.45
2023-03-13T18:01:44.072Z,2.30
2023-03-13T18:04:12.219Z,1.20
2023-03-13T18:06:42.445Z,1.40
2023-03-13T18:09:16.847Z,1.20
2023-03-13T18:11:44.466Z,1.02
2023-03-13T18:14:11.887Z,0.10
2023-03-13T18:16:47.978Z,0.10
2023-03-13T18:19:23.365Z,0.20
2023-03-13T18:21:53.551Z,0.28
2023-03-13T18:24:21.376Z,0.30
2023-03-13T18:26:50.173Z,1.15
2023-03-13T18:29:29.458Z,1.15
2023-03-13T18:32:00.497Z,1.73
2023-03-13T18:34:28.641Z,0.80
2023-03-13T18:36:56.309Z,0.95
2023-03-13T18:39:23.986Z,1.20
2023-03-13T18:41:52.789Z,1.40
2023-03-13T18:44:21.087Z,1.33
2023-03-13T18:46:49.322Z,1.30
2023-03-13T18:49:23.520Z,1.00
2023-03-13T18:51:53.982Z,0.88
2023-03-13T18:54:21.131Z,0.60
2023-03-13T18:56:48.605Z,1.17
2023-03-13T18:59:21.592Z,0.75
2023-03-13T19:01:49.857Z,1.30
2023-03-13T19:04:18.110Z,1.20
2023-03-13T19:06:46.566Z,1.73
2023-03-13T19:09:41.653Z,0.90
2023-03-13T19:12:05.278Z,481.25
2023-03-13T19:14:32.792Z,455.70
2023-03-13T19:17:00.328Z,461.00
2023-03-13T19:19:27.748Z,458.98
2023-03-13T19:21:56.368Z,1.15
2023-03-13T19:24:26.940Z,451.98
2023-03-13T19:26:58.914Z,445.23
2023-03-13T19:29:28.748Z,431.08
2023-03-13T19:31:56.604Z,270.92
2023-03-13T19:34:24.001Z,446.00
2023-03-13T19:36:53.473Z,424.98
2023-03-13T19:39:25.933Z,414.70
2023-03-13T19:41:54.111Z,414.88
2023-03-13T19:44:21.780Z,399.13
2023-03-13T19:46:49.364Z,407.73
2023-03-13T19:49:19.658Z,397.02
2023-03-13T19:51:47.598Z,399.02
2023-03-13T19:54:15.525Z,397.48
2023-03-13T19:56:48.385Z,394.98
2023-03-13T19:59:21.969Z,382.85
2023-03-13T20:01:49.596Z,387.27
2023-03-13T20:04:16.911Z,381.75
2023-03-13T20:09:23.362Z,388.05
2023-03-13T20:11:50.801Z,374.02
2023-03-13T20:14:18.295Z,370.05
2023-03-13T20:16:48.853Z,372.90
2023-03-13T20:19:16.401Z,369.35
2023-03-13T20:21:43.436Z,377.10
2023-03-13T20:24:11.020Z,386.25
2023-03-13T20:26:38.429Z,371.63
2023-03-13T20:29:05.537Z,367.67
2023-03-13T20:31:33.208Z,368.95
2023-03-13T20:34:00.545Z,368.77
2023-03-13T20:36:28.190Z,362.67
2023-03-13T20:38:55.389Z,344.65
2023-03-13T20:41:25.810Z,357.80
2023-03-13T20:43:55.826Z,345.02
2023-03-13T20:46:22.995Z,347.63
2023-03-13T20:48:50.438Z,353.13
2023-03-13T20:51:30.755Z,358.63
2023-03-13T20:54:12.709Z,351.15
2023-03-13T20:56:41.021Z,334.90
2023-03-13T20:59:08.233Z,338.48
2023-03-13T21:01:35.362Z,331.08
2023-03-13T21:04:02.500Z,338.92
2023-03-13T21:06:30.270Z,336.17
2023-03-13T21:08:57.382Z,337.33
2023-03-13T21:11:24.432Z,341.15
2023-03-13T21:13:51.730Z,327.52
2023-03-13T21:16:20.106Z,317.23
2023-03-13T21:18:47.852Z,330.65
2023-03-13T21:21:18.900Z,322.23
2023-03-13T21:23:46.927Z,314.92
2023-03-13T21:26:15.029Z,304.95
2023-03-13T21:28:42.402Z,309.20
2023-03-13T21:31:19.593Z,309.00
2023-03-13T21:33:47.593Z,295.67
2023-03-13T21:36:17.366Z,303.60
2023-03-13T21:38:44.818Z,291.20
2023-03-13T21:41:16.645Z,304.35
2023-03-13T21:43:43.838Z,299.55
2023-03-13T21:46:13.736Z,295.77
2023-03-13T21:48:42.883Z,288.65
2023-03-13T21:51:10.565Z,295.92
2023-03-13T21:53:38.821Z,291.00
2023-03-13T21:56:06.606Z,289.40
2023-03-13T21:58:33.693Z,293.88
2023-03-13T22:01:00.789Z,297.30
2023-03-13T22:03:27.818Z,297.63
2023-03-13T22:05:55.381Z,280.70
2023-03-13T22:08:22.561Z,283.67
2023-03-13T22:10:52.305Z,292.65
2023-03-13T22:13:19.357Z,300.40
2023-03-13T22:15:46.951Z,298.65
2023-03-13T22:18:17.224Z,295.10
2023-03-13T22:20:44.618Z,297.25
2023-03-13T22:23:12.891Z,311.50
2023-03-13T22:25:42.450Z,314.65
2023-03-13T22:28:10.987Z,307.33
2023-03-13T22:30:39.360Z,316.52
2023-03-13T22:33:07.873Z,314.38
2023-03-13T22:35:37.633Z,317.77
2023-03-13T22:38:05.298Z,322.25
2023-03-13T22:40:32.931Z,305.53
2023-03-13T22:43:00.562Z,328.80
2023-03-13T22:45:28.007Z,303.97
2023-03-13T22:47:55.374Z,313.50
2023-03-13T22:50:25.768Z,321.20
2023-03-13T22:52:53.522Z,320.03
2023-03-13T22:55:20.895Z,331.63
2023-03-13T22:57:48.349Z,307.87
2023-03-13T23:00:16.369Z,323.03
2023-03-13T23:02:43.859Z,327.20
2023-03-13T23:05:11.380Z,320.63
2023-03-13T23:07:40.852Z,320.27
2023-03-13T23:10:10.166Z,320.27
2023-03-13T23:12:37.529Z,329.00
2023-03-13T23:15:06.252Z,311.07
2023-03-13T23:17:35.061Z,320.55
2023-03-13T23:20:09.407Z,313.77
2023-03-13T23:22:36.894Z,327.75
2023-03-13T23:25:04.605Z,325.05
2023-03-13T23:27:32.094Z,306.33
2023-03-13T23:30:01.908Z,333.25
2023-03-13T23:32:29.243Z,323.17
2023-03-13T23:34:58.575Z,308.48
2023-03-13T23:37:25.562Z,317.05
2023-03-13T23:39:52.567Z,334.70
2023-03-13T23:42:19.597Z,300.52
2023-03-13T23:44:46.573Z,314.63
2023-03-13T23:47:13.945Z,316.70
2023-03-13T23:49:41.118Z,301.50
2023-03-13T23:52:09.074Z,300.10
2023-03-13T23:54:36.341Z,305.08
2023-03-13T23:57:03.526Z,313.10
2023-03-13T23:59:30.620Z,302.52
